sensor_id;sensor_type;location;lat;lon;timestamp;temperature;humidity
21216;DHT22;10765;50.954;5.322;2023-08-01T00:00:18;16.90;99.90
21216;DHT22;10765;50.954;5.322;2023-08-01T00:02:45;16.90;99.90
21216;DHT22;10765;50.954;5.322;2023-08-01T00:05:12;16.80;99.90
21216;DHT22;10765;50.954;5.322;2023-08-01T00:07:39;16.90;99.90
21216;DHT22;10765;50.954;5.322;2023-08-01T00:10:08;16.80;99.90
21216;DHT22;10765;50.954;5.322;2023-08-01T00:12:35;16.70;99.90
21216;DHT22;10765;50.954;5.322;2023-08-01T00:15:02;16.80;99.90
21216;DHT22;10765;50.954;5.322;2023-08-01T00:17:29;16.70;99.90
21216;DHT22;10765;50.954;5.322;2023-08-01T00:19:56;16.80;99.90
21216;DHT22;10765;50.954;5.322;2023-08-01T00:22:23;16.80;99.90
21216;DHT22;10765;50.954;5.322;2023-08-01T00:24:50;16.80;99.90
21216;DHT22;10765;50.954;5.322;2023-08-01T00:27:18;16.80;99.90
21216;DHT22;10765;50.954;5.322;2023-08-01T00:29:45;16.80;99.90
21216;DHT22;10765;50.954;5.322;2023-08-01T00:32:12;16.80;99.90
21216;DHT22;10765;50.954;5.322;2023-08-01T00:34:39;16.70;99.90
21216;DHT22;10765;50.954;5.322;2023-08-01T00:37:06;16.60;99.90
21216;DHT22;10765;50.954;5.322;2023-08-01T00:39:33;16.60;99.90
21216;DHT22;10765;50.954;5.322;2023-08-01T00:42:00;16.60;99.90
21216;DHT22;10765;50.954;5.322;2023-08-01T00:44:28;16.50;99.90
21216;DHT22;10765;50.954;5.322;2023-08-01T00:46:55;16.40;99.90
21216;DHT22;10765;50.954;5.322;2023-08-01T00:49:22;16.40;99.90
21216;DHT22;10765;50.954;5.322;2023-08-01T00:51:49;16.30;99.90
21216;DHT22;10765;50.954;5.322;2023-08-01T00:54:16;16.30;99.90
21216;DHT22;10765;50.954;5.322;2023-08-01T00:56:43;16.30;99.90
21216;DHT22;10765;50.954;5.322;2023-08-01T00:59:12;16.20;99.90
21216;DHT22;10765;50.954;5.322;2023-08-01T01:01:40;16.20;99.90
21216;DHT22;10765;50.954;5.322;2023-08-01T01:04:08;16.20;99.90
21216;DHT22;10765;50.954;5.322;2023-08-01T01:06:39;16.10;99.90
21216;DHT22;10765;50.954;5.322;2023-08-01T01:09:15;16.10;99.90
21216;DHT22;10765;50.954;5.322;2023-08-01T01:11:42;16.10;99.90
21216;DHT22;10765;50.954;5.322;2023-08-01T01:14:09;16.10;99.90
21216;DHT22;10765;50.954;5.322;2023-08-01T01:16:37;16.00;99.90
21216;DHT22;10765;50.954;5.322;2023-08-01T01:19:07;16.00;99.90
21216;DHT22;10765;50.954;5.322;2023-08-01T01:21:37;16.00;99.90
21216;DHT22;10765;50.954;5.322;2023-08-01T01:24:07;15.90;99.90
21216;DHT22;10765;50.954;5.322;2023-08-01T01:26:34;15.90;99.90
21216;DHT22;10765;50.954;5.322;2023-08-01T01:29:03;15.80;99.90
21216;DHT22;10765;50.954;5.322;2023-08-01T01:31:32;15.80;99.90
21216;DHT22;10765;50.954;5.322;2023-08-01T01:33:59;15.80;99.90
21216;DHT22;10765;50.954;5.322;2023-08-01T01:36:27;15.70;99.90
21216;DHT22;10765;50.954;5.322;2023-08-01T01:38:56;15.70;99.90
21216;DHT22;10765;50.954;5.322;2023-08-01T01:41:23;15.70;99.90
21216;DHT22;10765;50.954;5.322;2023-08-01T01:43:49;15.60;99.90
21216;DHT22;10765;50.954;5.322;2023-08-01T01:46:16;15.60;99.90
21216;DHT22;10765;50.954;5.322;2023-08-01T01:48:43;15.60;99.90
21216;DHT22;10765;50.954;5.322;2023-08-01T01:51:10;15.60;99.90
21216;DHT22;10765;50.954;5.322;2023-08-01T01:53:37;15.50;99.90
21216;DHT22;10765;50.954;5.322;2023-08-01T01:56:05;15.50;99.90
21216;DHT22;10765;50.954;5.322;2023-08-01T01:58:32;15.50;99.90
21216;DHT22;10765;50.954;5.322;2023-08-01T02:00:59;15.40;99.90
21216;DHT22;10765;50.954;5.322;2023-08-01T02:03:26;15.40;99.90
21216;DHT22;10765;50.954;5.322;2023-08-01T02:05:53;15.40;99.90
21216;DHT22;10765;50.954;5.322;2023-08-01T02:08:20;15.40;99.90
21216;DHT22;10765;50.954;5.322;2023-08-01T02:10:48;15.30;99.90
21216;DHT22;10765;50.954;5.322;2023-08-01T02:13:16;15.30;99.90
21216;DHT22;10765;50.954;5.322;2023-08-01T02:15:43;15.30;99.90
21216;DHT22;10765;50.954;5.322;2023-08-01T02:18:10;15.30;99.90
21216;DHT22;10765;50.954;5.322;2023-08-01T02:20:36;15.20;99.90
21216;DHT22;10765;50.954;5.322;2023-08-01T02:23:03;15.20;99.90
21216;DHT22;10765;50.954;5.322;2023-08-01T02:25:30;15.20;99.90
21216;DHT22;10765;50.954;5.322;2023-08-01T02:27:57;15.30;99.90
21216;DHT22;10765;50.954;5.322;2023-08-01T02:30:25;15.30;99.90
21216;DHT22;10765;50.954;5.322;2023-08-01T02:32:54;15.30;99.90
21216;DHT22;10765;50.954;5.322;2023-08-01T02:35:20;15.30;99.90
21216;DHT22;10765;50.954;5.322;2023-08-01T02:37:47;15.30;99.90
21216;DHT22;10765;50.954;5.322;2023-08-01T02:40:14;15.30;99.90
21216;DHT22;10765;50.954;5.322;2023-08-01T02:42:41;15.20;99.90
21216;DHT22;10765;50.954;5.322;2023-08-01T02:45:08;15.20;99.90
21216;DHT22;10765;50.954;5.322;2023-08-01T02:47:37;15.30;99.90
21216;DHT22;10765;50.954;5.322;2023-08-01T02:50:05;15.30;99.90
21216;DHT22;10765;50.954;5.322;2023-08-01T02:52:34;15.30;99.90
21216;DHT22;10765;50.954;5.322;2023-08-01T02:55:00;15.30;99.90
21216;DHT22;10765;50.954;5.322;2023-08-01T02:57:27;15.30;99.90
21216;DHT22;10765;50.954;5.322;2023-08-01T02:59:54;15.30;99.90
21216;DHT22;10765;50.954;5.322;2023-08-01T03:02:21;15.30;99.90
21216;DHT22;10765;50.954;5.322;2023-08-01T03:04:49;15.30;99.90
21216;DHT22;10765;50.954;5.322;2023-08-01T03:07:16;15.30;99.90
21216;DHT22;10765;50.954;5.322;2023-08-01T03:09:45;15.30;99.90
21216;DHT22;10765;50.954;5.322;2023-08-01T03:12:11;15.30;99.90
21216;DHT22;10765;50.954;5.322;2023-08-01T03:14:38;15.30;99.90
21216;DHT22;10765;50.954;5.322;2023-08-01T03:17:07;15.30;99.90
21216;DHT22;10765;50.954;5.322;2023-08-01T03:19:34;15.30;99.90
21216;DHT22;10765;50.954;5.322;2023-08-01T03:22:02;15.30;99.90
21216;DHT22;10765;50.954;5.322;2023-08-01T03:24:30;15.30;99.90
21216;DHT22;10765;50.954;5.322;2023-08-01T03:26:57;15.30;99.90
21216;DHT22;10765;50.954;5.322;2023-08-01T03:29:24;15.30;99.90
21216;DHT22;10765;50.954;5.322;2023-08-01T03:31:51;15.30;99.90
21216;DHT22;10765;50.954;5.322;2023-08-01T03:34:18;15.30;99.90
21216;DHT22;10765;50.954;5.322;2023-08-01T03:36:44;15.30;99.90
21216;DHT22;10765;50.954;5.322;2023-08-01T03:39:13;15.30;99.90
21216;DHT22;10765;50.954;5.322;2023-08-01T03:41:39;15.30;99.90
21216;DHT22;10765;50.954;5.322;2023-08-01T03:44:06;15.30;99.90
21216;DHT22;10765;50.954;5.322;2023-08-01T03:46:33;15.40;99.90
21216;DHT22;10765;50.954;5.322;2023-08-01T03:49:00;15.40;99.90
21216;DHT22;10765;50.954;5.322;2023-08-01T03:51:27;15.50;99.90
21216;DHT22;10765;50.954;5.322;2023-08-01T03:53:54;15.50;99.90
21216;DHT22;10765;50.954;5.322;2023-08-01T03:56:22;15.50;99.90
21216;DHT22;10765;50.954;5.322;2023-08-01T03:58:49;15.60;99.90
21216;DHT22;10765;50.954;5.322;2023-08-01T04:01:16;15.50;99.90
21216;DHT22;10765;50.954;5.322;2023-08-01T04:03:43;15.40;99.90
21216;DHT22;10765;50.954;5.322;2023-08-01T04:06:10;15.40;99.90
21216;DHT22;10765;50.954;5.322;2023-08-01T04:08:40;15.50;99.90
21216;DHT22;10765;50.954;5.322;2023-08-01T04:11:07;15.50;99.90
21216;DHT22;10765;50.954;5.322;2023-08-01T04:13:35;15.50;99.90
21216;DHT22;10765;50.954;5.322;2023-08-01T04:16:02;15.50;99.90
21216;DHT22;10765;50.954;5.322;2023-08-01T04:18:30;15.60;99.90
21216;DHT22;10765;50.954;5.322;2023-08-01T04:20:57;15.50;99.90
21216;DHT22;10765;50.954;5.322;2023-08-01T04:23:23;15.60;99.90
21216;DHT22;10765;50.954;5.322;2023-08-01T04:25:50;15.50;99.90
21216;DHT22;10765;50.954;5.322;2023-08-01T04:28:17;15.60;99.90
21216;DHT22;10765;50.954;5.322;2023-08-01T04:30:49;15.50;99.90
21216;DHT22;10765;50.954;5.322;2023-08-01T04:33:17;15.40;99.90
21216;DHT22;10765;50.954;5.322;2023-08-01T04:35:44;15.40;99.90
21216;DHT22;10765;50.954;5.322;2023-08-01T04:38:11;15.30;99.90
21216;DHT22;10765;50.954;5.322;2023-08-01T04:40:37;15.30;99.90
21216;DHT22;10765;50.954;5.322;2023-08-01T04:43:04;15.30;99.90
21216;DHT22;10765;50.954;5.322;2023-08-01T04:45:31;15.30;99.90
21216;DHT22;10765;50.954;5.322;2023-08-01T04:47:59;15.40;99.90
21216;DHT22;10765;50.954;5.322;2023-08-01T04:50:26;15.60;99.90
21216;DHT22;10765;50.954;5.322;2023-08-01T04:52:53;15.60;99.90
21216;DHT22;10765;50.954;5.322;2023-08-01T04:55:20;15.70;99.90
21216;DHT22;10765;50.954;5.322;2023-08-01T04:57:47;15.60;99.90
21216;DHT22;10765;50.954;5.322;2023-08-01T05:00:14;15.70;99.90
21216;DHT22;10765;50.954;5.322;2023-08-01T05:02:41;15.70;99.90
21216;DHT22;10765;50.954;5.322;2023-08-01T05:05:10;15.80;99.90
21216;DHT22;10765;50.954;5.322;2023-08-01T05:07:36;15.80;99.90
21216;DHT22;10765;50.954;5.322;2023-08-01T05:10:04;15.90;99.90
21216;DHT22;10765;50.954;5.322;2023-08-01T05:12:31;16.00;99.90
21216;DHT22;10765;50.954;5.322;2023-08-01T05:14:58;15.90;99.90
21216;DHT22;10765;50.954;5.322;2023-08-01T05:17:24;15.90;99.90
21216;DHT22;10765;50.954;5.322;2023-08-01T05:19:51;15.90;99.90
21216;DHT22;10765;50.954;5.322;2023-08-01T05:22:20;15.80;99.90
21216;DHT22;10765;50.954;5.322;2023-08-01T05:24:46;15.80;99.90
21216;DHT22;10765;50.954;5.322;2023-08-01T05:27:13;15.70;99.90
21216;DHT22;10765;50.954;5.322;2023-08-01T05:29:40;15.90;99.90
21216;DHT22;10765;50.954;5.322;2023-08-01T05:32:07;16.30;99.90
21216;DHT22;10765;50.954;5.322;2023-08-01T05:34:34;16.40;99.90
21216;DHT22;10765;50.954;5.322;2023-08-01T05:37:01;16.30;99.90
21216;DHT22;10765;50.954;5.322;2023-08-01T05:39:29;16.20;99.90
21216;DHT22;10765;50.954;5.322;2023-08-01T05:41:56;16.20;99.90
21216;DHT22;10765;50.954;5.322;2023-08-01T05:44:23;16.30;99.90
21216;DHT22;10765;50.954;5.322;2023-08-01T05:46:50;16.40;99.90
21216;DHT22;10765;50.954;5.322;2023-08-01T05:49:17;16.40;99.90
21216;DHT22;10765;50.954;5.322;2023-08-01T05:51:44;16.50;99.90
21216;DHT22;10765;50.954;5.322;2023-08-01T05:54:12;16.50;99.90
21216;DHT22;10765;50.954;5.322;2023-08-01T05:56:40;16.50;99.90
21216;DHT22;10765;50.954;5.322;2023-08-01T05:59:07;16.50;99.90
21216;DHT22;10765;50.954;5.322;2023-08-01T06:01:34;16.50;99.90
21216;DHT22;10765;50.954;5.322;2023-08-01T06:04:01;16.50;99.90
21216;DHT22;10765;50.954;5.322;2023-08-01T06:06:28;16.40;99.90
21216;DHT22;10765;50.954;5.322;2023-08-01T06:08:55;16.40;99.90
21216;DHT22;10765;50.954;5.322;2023-08-01T06:11:22;16.60;99.90
21216;DHT22;10765;50.954;5.322;2023-08-01T06:13:50;16.80;99.90
21216;DHT22;10765;50.954;5.322;2023-08-01T06:16:17;16.90;99.90
21216;DHT22;10765;50.954;5.322;2023-08-01T06:18:44;16.70;99.90
21216;DHT22;10765;50.954;5.322;2023-08-01T06:21:11;16.70;99.90
21216;DHT22;10765;50.954;5.322;2023-08-01T06:23:38;16.60;99.90
21216;DHT22;10765;50.954;5.322;2023-08-01T06:26:05;16.60;99.90
21216;DHT22;10765;50.954;5.322;2023-08-01T06:28:32;16.80;99.90
21216;DHT22;10765;50.954;5.322;2023-08-01T06:31:00;17.10;99.90
21216;DHT22;10765;50.954;5.322;2023-08-01T06:33:27;17.00;99.90
21216;DHT22;10765;50.954;5.322;2023-08-01T06:35:54;17.00;99.90
21216;DHT22;10765;50.954;5.322;2023-08-01T06:38:21;17.10;99.90
21216;DHT22;10765;50.954;5.322;2023-08-01T06:40:47;17.00;99.90
21216;DHT22;10765;50.954;5.322;2023-08-01T06:43:14;17.00;99.90
21216;DHT22;10765;50.954;5.322;2023-08-01T06:45:41;17.10;99.90
21216;DHT22;10765;50.954;5.322;2023-08-01T06:48:12;17.30;99.90
21216;DHT22;10765;50.954;5.322;2023-08-01T06:50:39;17.40;99.90
21216;DHT22;10765;50.954;5.322;2023-08-01T06:53:05;17.60;99.90
21216;DHT22;10765;50.954;5.322;2023-08-01T06:55:33;17.40;99.90
21216;DHT22;10765;50.954;5.322;2023-08-01T06:58:00;17.30;99.90
21216;DHT22;10765;50.954;5.322;2023-08-01T07:00:27;17.20;99.90
21216;DHT22;10765;50.954;5.322;2023-08-01T07:02:54;17.20;99.90
21216;DHT22;10765;50.954;5.322;2023-08-01T07:05:23;17.30;99.90
21216;DHT22;10765;50.954;5.322;2023-08-01T07:07:50;17.30;99.90
21216;DHT22;10765;50.954;5.322;2023-08-01T07:10:17;17.60;99.90
21216;DHT22;10765;50.954;5.322;2023-08-01T07:12:44;17.80;99.90
21216;DHT22;10765;50.954;5.322;2023-08-01T07:15:11;17.60;99.90
21216;DHT22;10765;50.954;5.322;2023-08-01T07:17:38;17.60;99.90
21216;DHT22;10765;50.954;5.322;2023-08-01T07:20:05;17.70;99.90
21216;DHT22;10765;50.954;5.322;2023-08-01T07:22:34;17.80;99.90
21216;DHT22;10765;50.954;5.322;2023-08-01T07:25:00;17.80;99.90
21216;DHT22;10765;50.954;5.322;2023-08-01T07:27:27;17.90;99.90
21216;DHT22;10765;50.954;5.322;2023-08-01T07:29:54;18.20;99.90
21216;DHT22;10765;50.954;5.322;2023-08-01T07:32:21;18.90;99.90
21216;DHT22;10765;50.954;5.322;2023-08-01T07:34:48;20.10;79.40
21216;DHT22;10765;50.954;5.322;2023-08-01T07:37:15;20.70;96.40
21216;DHT22;10765;50.954;5.322;2023-08-01T07:39:44;21.10;1.00
21216;DHT22;10765;50.954;5.322;2023-08-01T07:42:12;22.20;1.00
21216;DHT22;10765;50.954;5.322;2023-08-01T07:44:39;21.70;1.00
21216;DHT22;10765;50.954;5.322;2023-08-01T07:47:06;21.00;1.00
21216;DHT22;10765;50.954;5.322;2023-08-01T07:49:33;21.30;1.00
21216;DHT22;10765;50.954;5.322;2023-08-01T07:52:00;21.40;1.00
21216;DHT22;10765;50.954;5.322;2023-08-01T07:54:27;21.60;1.00
21216;DHT22;10765;50.954;5.322;2023-08-01T07:56:55;21.60;1.00
21216;DHT22;10765;50.954;5.322;2023-08-01T07:59:22;21.70;1.00
21216;DHT22;10765;50.954;5.322;2023-08-01T08:01:49;21.40;1.00
21216;DHT22;10765;50.954;5.322;2023-08-01T08:04:16;22.00;1.00
21216;DHT22;10765;50.954;5.322;2023-08-01T08:06:43;22.60;1.00
21216;DHT22;10765;50.954;5.322;2023-08-01T08:09:10;21.30;1.00
21216;DHT22;10765;50.954;5.322;2023-08-01T08:11:37;21.20;1.00
21216;DHT22;10765;50.954;5.322;2023-08-01T08:14:05;21.10;1.00
21216;DHT22;10765;50.954;5.322;2023-08-01T08:16:32;20.60;1.00
21216;DHT22;10765;50.954;5.322;2023-08-01T08:18:59;20.00;1.00
21216;DHT22;10765;50.954;5.322;2023-08-01T08:21:26;19.80;1.00
21216;DHT22;10765;50.954;5.322;2023-08-01T08:23:53;19.40;1.00
21216;DHT22;10765;50.954;5.322;2023-08-01T08:26:20;19.30;1.00
21216;DHT22;10765;50.954;5.322;2023-08-01T08:28:47;19.20;12.00
21216;DHT22;10765;50.954;5.322;2023-08-01T08:31:15;19.00;11.80
21216;DHT22;10765;50.954;5.322;2023-08-01T08:33:42;19.30;1.00
21216;DHT22;10765;50.954;5.322;2023-08-01T08:36:09;19.80;1.00
21216;DHT22;10765;50.954;5.322;2023-08-01T08:38:36;20.10;1.00
21216;DHT22;10765;50.954;5.322;2023-08-01T08:41:08;20.30;1.00
21216;DHT22;10765;50.954;5.322;2023-08-01T08:43:35;19.90;1.00
21216;DHT22;10765;50.954;5.322;2023-08-01T08:46:04;20.10;1.00
21216;DHT22;10765;50.954;5.322;2023-08-01T08:48:32;20.90;1.00
21216;DHT22;10765;50.954;5.322;2023-08-01T08:51:01;22.00;1.00
21216;DHT22;10765;50.954;5.322;2023-08-01T08:53:29;22.20;1.00
21216;DHT22;10765;50.954;5.322;2023-08-01T08:55:57;22.40;1.00
21216;DHT22;10765;50.954;5.322;2023-08-01T08:58:24;22.80;1.00
21216;DHT22;10765;50.954;5.322;2023-08-01T09:00:51;22.10;1.00
21216;DHT22;10765;50.954;5.322;2023-08-01T09:03:18;21.70;1.00
21216;DHT22;10765;50.954;5.322;2023-08-01T09:05:49;21.70;1.00
21216;DHT22;10765;50.954;5.322;2023-08-01T09:08:19;22.40;1.00
21216;DHT22;10765;50.954;5.322;2023-08-01T09:10:46;21.30;1.00
21216;DHT22;10765;50.954;5.322;2023-08-01T09:13:14;21.20;1.00
21216;DHT22;10765;50.954;5.322;2023-08-01T09:15:42;22.70;1.00
21216;DHT22;10765;50.954;5.322;2023-08-01T09:18:09;25.00;1.00
21216;DHT22;10765;50.954;5.322;2023-08-01T09:20:47;26.10;1.00
21216;DHT22;10765;50.954;5.322;2023-08-01T09:23:15;26.70;99.90
21216;DHT22;10765;50.954;5.322;2023-08-01T09:25:43;25.50;99.90
21216;DHT22;10765;50.954;5.322;2023-08-01T09:28:19;24.30;1.00
21216;DHT22;10765;50.954;5.322;2023-08-01T09:30:48;25.00;1.00
21216;DHT22;10765;50.954;5.322;2023-08-01T09:33:15;23.90;1.00
21216;DHT22;10765;50.954;5.322;2023-08-01T09:35:42;25.20;1.00
21216;DHT22;10765;50.954;5.322;2023-08-01T09:38:12;26.90;99.90
21216;DHT22;10765;50.954;5.322;2023-08-01T09:40:40;27.60;99.90
21216;DHT22;10765;50.954;5.322;2023-08-01T09:43:07;26.50;99.90
21216;DHT22;10765;50.954;5.322;2023-08-01T09:45:34;26.40;99.90
21216;DHT22;10765;50.954;5.322;2023-08-01T09:48:01;24.00;99.90
21216;DHT22;10765;50.954;5.322;2023-08-01T09:50:28;24.20;1.00
21216;DHT22;10765;50.954;5.322;2023-08-01T09:52:55;24.60;1.00
21216;DHT22;10765;50.954;5.322;2023-08-01T09:55:26;25.10;99.90
21216;DHT22;10765;50.954;5.322;2023-08-01T09:57:58;24.10;1.00
21216;DHT22;10765;50.954;5.322;2023-08-01T10:00:26;26.50;99.90
21216;DHT22;10765;50.954;5.322;2023-08-01T10:02:53;27.70;99.90
21216;DHT22;10765;50.954;5.322;2023-08-01T10:05:22;27.30;99.90
21216;DHT22;10765;50.954;5.322;2023-08-01T10:07:51;27.20;99.90
21216;DHT22;10765;50.954;5.322;2023-08-01T10:10:20;27.60;99.90
21216;DHT22;10765;50.954;5.322;2023-08-01T10:12:49;28.00;99.90
21216;DHT22;10765;50.954;5.322;2023-08-01T10:15:17;28.20;99.90
21216;DHT22;10765;50.954;5.322;2023-08-01T10:17:44;26.30;99.90
21216;DHT22;10765;50.954;5.322;2023-08-01T10:20:12;25.30;99.90
21216;DHT22;10765;50.954;5.322;2023-08-01T10:22:41;26.30;99.90
21216;DHT22;10765;50.954;5.322;2023-08-01T10:25:09;27.60;99.90
21216;DHT22;10765;50.954;5.322;2023-08-01T10:27:36;28.40;99.90
21216;DHT22;10765;50.954;5.322;2023-08-01T10:30:05;28.60;99.90
21216;DHT22;10765;50.954;5.322;2023-08-01T10:32:34;29.20;99.90
21216;DHT22;10765;50.954;5.322;2023-08-01T10:35:02;28.30;99.90
21216;DHT22;10765;50.954;5.322;2023-08-01T10:37:39;29.70;99.90
21216;DHT22;10765;50.954;5.322;2023-08-01T10:40:07;31.70;99.90
21216;DHT22;10765;50.954;5.322;2023-08-01T10:42:39;31.20;99.90
21216;DHT22;10765;50.954;5.322;2023-08-01T10:45:19;29.30;99.90
21216;DHT22;10765;50.954;5.322;2023-08-01T10:47:46;27.40;99.90
21216;DHT22;10765;50.954;5.322;2023-08-01T10:50:14;24.90;99.90
21216;DHT22;10765;50.954;5.322;2023-08-01T10:52:42;25.00;99.90
21216;DHT22;10765;50.954;5.322;2023-08-01T10:55:09;25.60;99.90
21216;DHT22;10765;50.954;5.322;2023-08-01T10:57:47;25.00;99.90
21216;DHT22;10765;50.954;5.322;2023-08-01T11:00:17;24.40;1.00
21216;DHT22;10765;50.954;5.322;2023-08-01T11:02:49;23.80;1.00
21216;DHT22;10765;50.954;5.322;2023-08-01T11:05:16;23.50;1.00
21216;DHT22;10765;50.954;5.322;2023-08-01T11:07:53;23.50;1.00
21216;DHT22;10765;50.954;5.322;2023-08-01T11:10:20;23.90;1.00
21216;DHT22;10765;50.954;5.322;2023-08-01T11:12:48;24.10;1.00
21216;DHT22;10765;50.954;5.322;2023-08-01T11:15:16;24.10;1.00
21216;DHT22;10765;50.954;5.322;2023-08-01T11:17:46;24.10;1.00
21216;DHT22;10765;50.954;5.322;2023-08-01T11:20:14;23.90;1.00
21216;DHT22;10765;50.954;5.322;2023-08-01T11:22:50;24.90;1.00
21216;DHT22;10765;50.954;5.322;2023-08-01T11:25:17;26.70;99.90
21216;DHT22;10765;50.954;5.322;2023-08-01T11:27:44;25.80;99.90
21216;DHT22;10765;50.954;5.322;2023-08-01T11:30:11;25.10;1.00
21216;DHT22;10765;50.954;5.322;2023-08-01T11:32:40;24.60;1.00
21216;DHT22;10765;50.954;5.322;2023-08-01T11:35:07;25.00;99.90
21216;DHT22;10765;50.954;5.322;2023-08-01T11:37:35;24.50;1.00
21216;DHT22;10765;50.954;5.322;2023-08-01T11:40:03;23.90;1.00
21216;DHT22;10765;50.954;5.322;2023-08-01T11:42:31;23.90;1.00
21216;DHT22;10765;50.954;5.322;2023-08-01T11:45:09;24.50;1.00
21216;DHT22;10765;50.954;5.322;2023-08-01T11:47:36;24.70;1.00
21216;DHT22;10765;50.954;5.322;2023-08-01T11:50:06;24.40;1.00
21216;DHT22;10765;50.954;5.322;2023-08-01T11:52:33;24.60;1.00
21216;DHT22;10765;50.954;5.322;2023-08-01T11:55:01;24.90;1.00
21216;DHT22;10765;50.954;5.322;2023-08-01T11:57:28;25.60;1.00
21216;DHT22;10765;50.954;5.322;2023-08-01T11:59:56;25.00;1.00
21216;DHT22;10765;50.954;5.322;2023-08-01T12:02:23;24.50;1.00
21216;DHT22;10765;50.954;5.322;2023-08-01T12:04:51;25.90;99.90
21216;DHT22;10765;50.954;5.322;2023-08-01T12:07:19;26.30;99.90
21216;DHT22;10765;50.954;5.322;2023-08-01T12:09:56;28.70;99.90
21216;DHT22;10765;50.954;5.322;2023-08-01T12:12:23;29.60;99.90
21216;DHT22;10765;50.954;5.322;2023-08-01T12:14:49;26.70;99.90
21216;DHT22;10765;50.954;5.322;2023-08-01T12:17:16;25.50;99.90
21216;DHT22;10765;50.954;5.322;2023-08-01T12:19:43;24.30;1.00
21216;DHT22;10765;50.954;5.322;2023-08-01T12:22:10;23.40;1.00
21216;DHT22;10765;50.954;5.322;2023-08-01T12:24:38;23.50;1.00
21216;DHT22;10765;50.954;5.322;2023-08-01T12:27:07;23.90;1.00
21216;DHT22;10765;50.954;5.322;2023-08-01T12:29:34;23.70;1.00
21216;DHT22;10765;50.954;5.322;2023-08-01T12:32:01;23.20;1.00
21216;DHT22;10765;50.954;5.322;2023-08-01T12:34:28;23.30;1.00
21216;DHT22;10765;50.954;5.322;2023-08-01T12:36:55;23.00;1.00
21216;DHT22;10765;50.954;5.322;2023-08-01T12:39:22;22.40;1.00
21216;DHT22;10765;50.954;5.322;2023-08-01T12:41:52;22.20;1.00
21216;DHT22;10765;50.954;5.322;2023-08-01T12:44:20;21.60;1.00
21216;DHT22;10765;50.954;5.322;2023-08-01T12:46:47;21.50;1.00
21216;DHT22;10765;50.954;5.322;2023-08-01T12:49:14;21.60;1.00
21216;DHT22;10765;50.954;5.322;2023-08-01T12:51:41;22.30;1.00
21216;DHT22;10765;50.954;5.322;2023-08-01T12:54:08;24.60;1.00
21216;DHT22;10765;50.954;5.322;2023-08-01T12:56:34;25.70;1.00
21216;DHT22;10765;50.954;5.322;2023-08-01T12:59:03;26.00;1.00
21216;DHT22;10765;50.954;5.322;2023-08-01T13:01:30;28.70;99.90
21216;DHT22;10765;50.954;5.322;2023-08-01T13:03:57;27.40;99.90
21216;DHT22;10765;50.954;5.322;2023-08-01T13:06:24;26.40;99.90
21216;DHT22;10765;50.954;5.322;2023-08-01T13:08:51;25.10;1.00
21216;DHT22;10765;50.954;5.322;2023-08-01T13:11:18;24.20;1.00
21216;DHT22;10765;50.954;5.322;2023-08-01T13:13:44;23.50;1.00
21216;DHT22;10765;50.954;5.322;2023-08-01T13:16:13;23.60;1.00
21216;DHT22;10765;50.954;5.322;2023-08-01T13:18:40;23.40;1.00
21216;DHT22;10765;50.954;5.322;2023-08-01T13:21:10;23.00;1.00
21216;DHT22;10765;50.954;5.322;2023-08-01T13:23:37;22.50;1.00
21216;DHT22;10765;50.954;5.322;2023-08-01T13:26:04;22.10;1.00
21216;DHT22;10765;50.954;5.322;2023-08-01T13:28:31;21.70;1.00
21216;DHT22;10765;50.954;5.322;2023-08-01T13:30:58;23.10;1.00
21216;DHT22;10765;50.954;5.322;2023-08-01T13:33:26;22.70;1.00
21216;DHT22;10765;50.954;5.322;2023-08-01T13:35:53;22.30;1.00
21216;DHT22;10765;50.954;5.322;2023-08-01T13:38:20;21.70;1.00
21216;DHT22;10765;50.954;5.322;2023-08-01T13:40:47;21.50;1.00
21216;DHT22;10765;50.954;5.322;2023-08-01T13:43:14;21.30;1.00
21216;DHT22;10765;50.954;5.322;2023-08-01T13:45:41;21.20;1.00
21216;DHT22;10765;50.954;5.322;2023-08-01T13:48:08;21.50;1.00
21216;DHT22;10765;50.954;5.322;2023-08-01T13:50:36;21.80;1.00
21216;DHT22;10765;50.954;5.322;2023-08-01T13:53:03;21.70;1.00
21216;DHT22;10765;50.954;5.322;2023-08-01T13:55:32;21.80;1.00
21216;DHT22;10765;50.954;5.322;2023-08-01T13:57:59;21.40;1.00
21216;DHT22;10765;50.954;5.322;2023-08-01T14:00:26;21.50;1.00
21216;DHT22;10765;50.954;5.322;2023-08-01T14:02:53;21.20;1.00
21216;DHT22;10765;50.954;5.322;2023-08-01T14:05:21;21.20;1.00
21216;DHT22;10765;50.954;5.322;2023-08-01T14:07:49;21.40;1.00
21216;DHT22;10765;50.954;5.322;2023-08-01T14:10:16;21.80;1.00
21216;DHT22;10765;50.954;5.322;2023-08-01T14:12:43;21.90;1.00
21216;DHT22;10765;50.954;5.322;2023-08-01T14:15:10;22.60;1.00
21216;DHT22;10765;50.954;5.322;2023-08-01T14:17:38;23.10;1.00
21216;DHT22;10765;50.954;5.322;2023-08-01T14:20:07;23.10;1.00
21216;DHT22;10765;50.954;5.322;2023-08-01T14:22:35;22.50;1.00
21216;DHT22;10765;50.954;5.322;2023-08-01T14:25:04;23.30;1.00
21216;DHT22;10765;50.954;5.322;2023-08-01T14:27:31;23.50;1.00
21216;DHT22;10765;50.954;5.322;2023-08-01T14:29:58;23.00;1.00
21216;DHT22;10765;50.954;5.322;2023-08-01T14:32:25;22.20;1.00
21216;DHT22;10765;50.954;5.322;2023-08-01T14:34:52;21.90;1.00
21216;DHT22;10765;50.954;5.322;2023-08-01T14:37:19;22.00;1.00
21216;DHT22;10765;50.954;5.322;2023-08-01T14:39:49;22.20;1.00
21216;DHT22;10765;50.954;5.322;2023-08-01T14:42:17;22.20;1.00
21216;DHT22;10765;50.954;5.322;2023-08-01T14:44:44;22.10;1.00
21216;DHT22;10765;50.954;5.322;2023-08-01T14:47:11;22.10;1.00
21216;DHT22;10765;50.954;5.322;2023-08-01T14:49:38;22.40;1.00
21216;DHT22;10765;50.954;5.322;2023-08-01T14:52:09;22.20;1.00
21216;DHT22;10765;50.954;5.322;2023-08-01T14:54:35;21.50;1.00
21216;DHT22;10765;50.954;5.322;2023-08-01T14:57:03;21.40;1.00
21216;DHT22;10765;50.954;5.322;2023-08-01T14:59:32;21.30;1.00
21216;DHT22;10765;50.954;5.322;2023-08-01T15:01:59;21.10;1.00
21216;DHT22;10765;50.954;5.322;2023-08-01T15:04:26;20.70;1.00
21216;DHT22;10765;50.954;5.322;2023-08-01T15:06:53;20.60;1.00
21216;DHT22;10765;50.954;5.322;2023-08-01T15:09:20;20.40;1.00
21216;DHT22;10765;50.954;5.322;2023-08-01T15:11:47;20.30;1.00
21216;DHT22;10765;50.954;5.322;2023-08-01T15:14:14;20.40;1.00
21216;DHT22;10765;50.954;5.322;2023-08-01T15:16:42;20.50;1.00
21216;DHT22;10765;50.954;5.322;2023-08-01T15:19:09;20.80;1.00
21216;DHT22;10765;50.954;5.322;2023-08-01T15:21:36;20.70;1.00
21216;DHT22;10765;50.954;5.322;2023-08-01T15:24:03;20.70;1.00
21216;DHT22;10765;50.954;5.322;2023-08-01T15:26:30;20.60;1.00
21216;DHT22;10765;50.954;5.322;2023-08-01T15:28:56;20.30;1.00
21216;DHT22;10765;50.954;5.322;2023-08-01T15:31:23;20.20;1.00
21216;DHT22;10765;50.954;5.322;2023-08-01T15:33:52;19.90;1.00
21216;DHT22;10765;50.954;5.322;2023-08-01T15:36:25;19.80;1.00
21216;DHT22;10765;50.954;5.322;2023-08-01T15:38:53;19.80;1.00